Terminal Aerodrome Forecast
Issued by NWS

Current Version | Previous Version | Text Only | Print | Product List | Glossary Off
Versions: 1 2 3 4 5 6 7 8 9 10 11 12 13 14 15 16 17 18 19 20 21 22 23

568
FTUS41 KILN 191735
TAFLUK
TAF
KLUK 191735Z 1918/2018 VRB03KT P6SM SCT130 OVC200
     FM192300 VRB03KT P6SM VCSH OVC050
     FM200000 10004KT 3SM -RA OVC040
     FM200200 11004KT 3SM -RA OVC025
     FM200400 11003KT 3SM -RA BR OVC015
     FM200600 12003KT 2SM -RA BR OVC009
     FM200800 16003KT 2SM BR VCSH OVC005
     FM201200 21002KT 3SM BR OVC003
     FM201400 22004KT 3SM BR OVC005=

USA.gov is the U.S. government's official web portal to all federal, state and local government web resources and services.